Etusivu
METAR-TAF:

METAR-TAF

Lentoasemat :

Teheran, Iran

Leveyspiiri: 35-41N, Pituuspiiri: 051-21E, korkeus merenpinnasta: 1204 m

Tämänhetkinen sää

Tämä raportti tehtiin 20 minuuttia sitten, kello 15.30 UTC
Tuuli 12 kn kaakosta
Lämpötila 38°C
Kosteus 8%
Ilmanpaine 1002 hPa
Näkyvyys 10 km tai enemmän
Muutamia pilviä 4000 ft:n korkeudessa

METAR: OIII 231530Z 14012KT 9999 FEW040 38/M02 Q1002 A2960

Aika: 20:20 (15:50 UTC)

Sääennuste

Tämä raportti tehtiin 4 tuntia ja 40 minuuttia sitten, kello 11.10 UTC
Ennuste voimassa 23. päivästä klo 12 UTC - 24. päivään klo 18 UTC
Tuuli 8 kn idästä/kaakosta
Näkyvyys: 7000 m
Hajanaisia pilviä 10000 ft:n korkeudessa
Ajoittain
23. päivästä klo 12 UTC - 23. päivään klo 15 UTC
Tuuli 17 kn idästä/kaakosta

TAF: OIII 231110Z 2312/2418 11004MPS 7000 SCT100 TEMPO 2312/2315 11009MPS

Säähavainnot ja -ennusteet yli 4000 lentoasemalta (METAR- ja TAF-raportit).

Käytössä olevat sääasemat on merkitty karttaan keltaisilla ja punaisilla pisteillä.

Aseta hiiri pisteen päälle nähdäksesi sääaseman nimen.

Klikkaa sitten nähdäksesi säähavainnot ja -ennusteet.

Kartan vaihtaminen: klikkaa mustalla rastilla varustettuja vihreitä pisteitä, niin voit zoomata sisään; viivalla varustettua vihreää pistettä, niin voit zoomata ulos tai vihreitä nuolia, niin pääset viereisille kartoille.


METAR-TAF: